Time;durP1;ratioP1;P1;durP2;ratioP2;P2;SDS_P1;SDS_P2;PMS_P1;PMS_P2;Temp;Humidity;BMP_temperature;BMP_pressure;BME280_temperature;BME280_humidity;BME280_pressure;Samples;Min_cycle;Max_cycle;Signal;HPM_P1;HPM_P2
2021/07/05 00:00:11;;;;;;;4.00;1.10;;;19.00;1.00;;;;;;4955819;28;20396;-89
2021/07/05 00:02:36;;;;;;;4.43;1.10;;;19.20;1.00;;;;;;4955235;28;20062;-89
2021/07/05 00:05:04;;;;;;;4.97;1.20;;;19.20;1.00;;;;;;4955438;28;20484;-89
2021/07/05 00:07:30;;;;;;;2.78;1.20;;;19.20;1.00;;;;;;4940263;29;20086;-89
2021/07/05 00:09:56;;;;;;;1.83;1.60;;;19.10;1.00;;;;;;4955733;28;20035;-89
2021/07/05 00:12:22;;;;;;;2.38;1.10;;;18.90;1.00;;;;;;4955210;28;20027;-89
2021/07/05 00:14:48;;;;;;;5.70;1.58;;;18.80;1.00;;;;;;4955323;28;20086;-89
2021/07/05 00:17:14;;;;;;;2.30;1.40;;;18.90;1.00;;;;;;4955083;28;20417;-89
2021/07/05 00:19:40;;;;;;;4.82;1.30;;;18.90;1.00;;;;;;4955516;28;20041;-89
2021/07/05 00:22:06;;;;;;;2.15;1.02;;;19.00;1.00;;;;;;4955661;28;20110;-89
2021/07/05 00:24:32;;;;;;;5.55;1.23;;;18.90;1.00;;;;;;4954412;29;20448;-89
2021/07/05 00:26:57;;;;;;;4.70;1.20;;;19.10;1.00;;;;;;4954713;28;20027;-89
2021/07/05 00:29:23;;;;;;;5.50;1.10;;;19.10;1.00;;;;;;4954494;28;20496;-89
2021/07/05 00:31:49;;;;;;;2.15;1.10;;;19.10;1.00;;;;;;4955006;28;20036;-89
2021/07/05 00:34:15;;;;;;;5.07;1.40;;;19.00;1.00;;;;;;4954797;28;20035;-89
2021/07/05 00:36:40;;;;;;;5.45;1.30;;;19.00;1.00;;;;;;4954914;28;20071;-89
2021/07/05 00:39:06;;;;;;;5.38;1.10;;;19.00;1.00;;;;;;4949378;28;20026;-89
2021/07/05 00:41:32;;;;;;;3.17;1.42;;;19.00;1.00;;;;;;4955054;28;20070;-89
2021/07/05 00:43:59;;;;;;;2.53;1.20;;;19.00;1.00;;;;;;4955089;28;20060;-89
2021/07/05 00:46:26;;;;;;;2.50;0.98;;;19.00;1.00;;;;;;4955409;28;20027;-89
2021/07/05 00:48:52;;;;;;;4.70;1.25;;;19.00;1.00;;;;;;4955114;28;20046;-89
2021/07/05 00:51:18;;;;;;;3.50;1.00;;;18.80;1.00;;;;;;4954635;28;20023;-90
2021/07/05 00:53:46;;;;;;;3.33;1.25;;;18.80;1.00;;;;;;4953280;29;20034;-89
2021/07/05 00:56:12;;;;;;;2.28;1.20;;;18.80;1.00;;;;;;4953489;29;20504;-89
2021/07/05 00:58:39;;;;;;;3.28;1.25;;;18.70;1.00;;;;;;4954864;29;20055;-89
2021/07/05 01:01:05;;;;;;;6.90;1.40;;;18.70;1.00;;;;;;4954682;28;20035;-89
2021/07/05 01:03:31;;;;;;;5.85;1.20;;;18.70;1.00;;;;;;4954484;28;20042;-89
2021/07/05 01:05:56;;;;;;;2.63;1.20;;;18.60;1.00;;;;;;4954296;28;20035;-89
2021/07/05 01:08:22;;;;;;;6.43;1.70;;;18.80;1.00;;;;;;4954093;28;20070;-89
2021/07/05 01:10:48;;;;;;;3.20;1.20;;;18.80;1.00;;;;;;4954398;28;20028;-89
2021/07/05 01:13:14;;;;;;;4.50;1.40;;;18.90;1.00;;;;;;4954438;28;20391;-89
2021/07/05 01:15:40;;;;;;;3.03;1.23;;;18.90;1.00;;;;;;4952455;29;20114;-89
2021/07/05 01:18:06;;;;;;;3.35;1.15;;;19.00;1.00;;;;;;4954589;28;20126;-89
2021/07/05 01:20:34;;;;;;;4.05;1.27;;;18.80;1.00;;;;;;4954008;28;20061;-89
2021/07/05 01:23:01;;;;;;;5.30;1.45;;;19.00;1.00;;;;;;4954090;28;20487;-89
2021/07/05 01:25:30;;;;;;;6.57;1.23;;;18.90;1.00;;;;;;4954278;28;20094;-89
2021/07/05 01:27:57;;;;;;;2.35;1.13;;;18.80;1.00;;;;;;4955143;28;20542;-89
2021/07/05 01:30:23;;;;;;;4.20;1.30;;;18.80;1.00;;;;;;4953845;28;20035;-89
2021/07/05 01:32:53;;;;;;;1.38;1.00;;;19.00;1.00;;;;;;4953931;28;20070;-89
2021/07/05 01:35:19;;;;;;;3.10;1.45;;;19.00;1.00;;;;;;4953933;28;20024;-89
2021/07/05 01:37:45;;;;;;;3.95;1.20;;;18.90;1.00;;;;;;4954011;28;20090;-89
2021/07/05 01:40:17;;;;;;;3.90;1.30;;;18.90;1.00;;;;;;4952753;29;20046;-89
2021/07/05 01:42:54;;;;;;;2.42;1.20;;;18.80;1.00;;;;;;4952429;29;20019;-89
2021/07/05 01:45:25;;;;;;;3.92;1.20;;;18.80;1.00;;;;;;4954286;28;20038;-89
2021/07/05 01:47:52;;;;;;;3.70;1.33;;;18.90;1.00;;;;;;4956153;28;20062;-89
2021/07/05 01:50:18;;;;;;;4.82;1.08;;;18.80;1.00;;;;;;4957826;28;20106;-89
2021/07/05 01:52:45;;;;;;;5.43;1.02;;;18.90;1.00;;;;;;4958381;28;20042;-89
2021/07/05 01:55:14;;;;;;;3.22;1.02;;;19.00;1.00;;;;;;4957595;28;20134;-89
2021/07/05 01:57:39;;;;;;;2.88;1.23;;;18.80;1.00;;;;;;4957687;28;20074;-89
2021/07/05 02:00:11;;;;;;;4.00;1.05;;;18.80;1.00;;;;;;4957949;28;20051;-89
2021/07/05 02:02:37;;;;;;;2.67;1.00;;;18.80;1.00;;;;;;4957824;28;20074;-89
2021/07/05 02:05:07;;;;;;;6.97;1.63;;;18.80;1.00;;;;;;4958214;28;20035;-89
2021/07/05 02:07:33;;;;;;;3.95;1.42;;;18.80;1.00;;;;;;4941328;29;20412;-89
2021/07/05 02:09:58;;;;;;;1.95;1.23;;;18.80;1.00;;;;;;4958490;28;20042;-89
2021/07/05 02:12:24;;;;;;;4.97;1.50;;;18.80;1.00;;;;;;4956986;28;20023;-89
2021/07/05 02:14:50;;;;;;;5.88;1.40;;;18.70;1.00;;;;;;4957363;28;20053;-89
2021/07/05 02:17:15;;;;;;;2.40;1.20;;;18.70;1.00;;;;;;4957236;28;20220;-89
2021/07/05 02:19:41;;;;;;;3.75;1.13;;;18.70;1.00;;;;;;4957287;28;20441;-89
2021/07/05 02:22:08;;;;;;;3.45;1.20;;;18.70;1.00;;;;;;4957295;28;20034;-89
2021/07/05 02:24:35;;;;;;;3.30;1.17;;;18.70;1.00;;;;;;4956716;29;20042;-89
2021/07/05 02:27:01;;;;;;;5.03;1.20;;;18.60;1.00;;;;;;4956569;28;20117;-89
2021/07/05 02:29:27;;;;;;;2.30;1.20;;;18.60;1.00;;;;;;4957462;28;20457;-89
2021/07/05 02:31:52;;;;;;;5.22;1.20;;;18.60;1.00;;;;;;4957644;28;20106;-89
2021/07/05 02:34:18;;;;;;;2.60;1.00;;;18.70;1.00;;;;;;4956821;28;20488;-89
2021/07/05 02:36:44;;;;;;;6.13;1.40;;;18.70;1.00;;;;;;4957860;28;20035;-89
2021/07/05 02:39:10;;;;;;;4.32;1.15;;;18.70;1.00;;;;;;4956672;28;20028;-89
2021/07/05 02:41:36;;;;;;;6.22;1.50;;;18.80;1.00;;;;;;4956546;28;20496;-89
2021/07/05 02:44:03;;;;;;;2.67;1.40;;;18.70;1.00;;;;;;4956933;28;20025;-89
2021/07/05 02:46:29;;;;;;;6.72;1.60;;;18.70;1.00;;;;;;4941539;29;20020;-89
2021/07/05 02:48:54;;;;;;;3.70;1.27;;;18.80;1.00;;;;;;4956409;28;20083;-90
2021/07/05 02:51:20;;;;;;;1.45;1.35;;;18.70;1.00;;;;;;4957534;28;20502;-89
2021/07/05 02:53:46;;;;;;;6.65;1.73;;;18.70;1.00;;;;;;4956349;28;20031;-89
2021/07/05 02:56:12;;;;;;;2.10;1.42;;;18.80;1.00;;;;;;4956712;28;20282;-89
2021/07/05 02:58:38;;;;;;;3.53;1.50;;;18.70;1.00;;;;;;4955896;28;20519;-89
2021/07/05 03:01:07;;;;;;;6.57;1.63;;;18.70;1.00;;;;;;4955885;28;20027;-89
2021/07/05 03:03:33;;;;;;;7.03;1.65;;;18.80;1.00;;;;;;4956998;29;20027;-88
2021/07/05 03:05:59;;;;;;;6.30;1.73;;;18.70;1.00;;;;;;4956343;28;20031;-89
2021/07/05 03:08:25;;;;;;;3.17;1.35;;;18.70;1.00;;;;;;4956077;28;20042;-90
2021/07/05 03:10:51;;;;;;;7.43;1.42;;;18.60;1.00;;;;;;4956803;29;20472;-89
2021/07/05 03:13:18;;;;;;;1.92;1.20;;;18.60;1.00;;;;;;4956182;28;20488;-89
2021/07/05 03:15:46;;;;;;;3.65;1.50;;;18.60;1.00;;;;;;4956881;28;20023;-89
2021/07/05 03:18:12;;;;;;;5.07;1.40;;;18.70;1.00;;;;;;4956657;28;20031;-89
2021/07/05 03:20:44;;;;;;;4.53;1.40;;;18.70;1.00;;;;;;4955057;28;20063;-89
2021/07/05 03:23:11;;;;;;;3.65;1.40;;;18.60;1.00;;;;;;4956416;28;20019;-88
2021/07/05 03:25:38;;;;;;;5.18;1.60;;;18.60;1.00;;;;;;4955630;28;20054;-89
2021/07/05 03:28:06;;;;;;;6.95;1.77;;;18.50;1.00;;;;;;4956942;28;20043;-89
2021/07/05 03:30:33;;;;;;;4.55;1.40;;;18.60;1.00;;;;;;4956415;28;20086;-89
2021/07/05 03:32:59;;;;;;;3.80;1.23;;;18.50;1.00;;;;;;4955737;28;20039;-88
2021/07/05 03:35:25;;;;;;;2.58;1.33;;;18.50;1.00;;;;;;4955777;28;20043;-88
2021/07/05 03:37:52;;;;;;;6.85;1.60;;;18.60;1.00;;;;;;4955825;28;20027;-88
2021/07/05 03:40:23;;;;;;;4.43;1.30;;;18.50;1.00;;;;;;4955374;28;20031;-89
2021/07/05 03:42:49;;;;;;;2.72;1.60;;;18.40;1.00;;;;;;4956405;28;20078;-89
2021/07/05 03:45:17;;;;;;;6.22;1.52;;;18.40;1.00;;;;;;4954925;28;20065;-89
2021/07/05 03:47:44;;;;;;;1.85;1.40;;;18.90;1.00;;;;;;4950047;28;20066;-89
2021/07/05 03:50:10;;;;;;;2.53;1.20;;;18.50;1.00;;;;;;4955643;28;20046;-89
2021/07/05 03:52:36;;;;;;;6.65;1.42;;;18.50;1.00;;;;;;4955549;28;20074;-89
2021/07/05 03:55:08;;;;;;;4.25;1.38;;;18.50;1.00;;;;;;4955413;29;20047;-88
2021/07/05 03:57:35;;;;;;;2.58;1.30;;;18.60;1.00;;;;;;4955095;29;20135;-89
2021/07/05 04:00:00;;;;;;;5.88;1.85;;;18.60;1.00;;;;;;4955337;28;20030;-88
2021/07/05 04:02:26;;;;;;;2.53;1.50;;;18.60;1.00;;;;;;4956563;28;20036;-89
2021/07/05 04:04:55;;;;;;;5.22;1.42;;;18.70;1.00;;;;;;4955296;28;20448;-89
2021/07/05 04:07:21;;;;;;;5.00;1.63;;;18.70;1.00;;;;;;4955356;28;20454;-89
2021/07/05 04:09:47;;;;;;;5.55;1.60;;;18.80;1.00;;;;;;4955082;28;20023;-89
2021/07/05 04:12:16;;;;;;;5.97;1.50;;;18.80;1.00;;;;;;4954441;28;20110;-89
2021/07/05 04:14:42;;;;;;;5.45;1.60;;;18.70;1.00;;;;;;4955664;28;20035;-89
2021/07/05 04:17:08;;;;;;;4.43;1.58;;;18.70;1.00;;;;;;4954965;28;20380;-88
2021/07/05 04:19:33;;;;;;;5.38;1.95;;;18.70;1.00;;;;;;4955121;28;20487;-89
2021/07/05 04:21:59;;;;;;;2.80;1.40;;;18.80;1.00;;;;;;4955163;28;20037;-87
2021/07/05 04:24:25;;;;;;;4.22;2.00;;;18.70;1.00;;;;;;4955751;28;20507;-89
2021/07/05 04:26:50;;;;;;;4.97;1.15;;;18.70;1.00;;;;;;4953566;28;20066;-89
2021/07/05 04:29:16;;;;;;;5.47;1.60;;;18.70;1.00;;;;;;4954770;28;20086;-89
2021/07/05 04:31:42;;;;;;;5.38;2.13;;;18.80;1.00;;;;;;4953716;29;20047;-89
2021/07/05 04:34:07;;;;;;;2.42;1.80;;;18.60;1.00;;;;;;4955263;28;20042;-89
2021/07/05 04:36:35;;;;;;;2.67;1.40;;;18.70;1.00;;;;;;4955029;28;20066;-89
2021/07/05 04:39:03;;;;;;;2.65;1.48;;;18.80;1.00;;;;;;4954449;28;20024;-89
2021/07/05 04:41:29;;;;;;;3.22;1.48;;;18.70;1.00;;;;;;4954963;28;20035;-89
2021/07/05 04:43:55;;;;;;;3.70;1.50;;;18.90;1.00;;;;;;4954731;28;20015;-89
2021/07/05 04:46:22;;;;;;;2.67;1.27;;;18.90;1.00;;;;;;4954662;28;20039;-89
2021/07/05 04:48:50;;;;;;;2.72;1.50;;;19.10;1.00;;;;;;4954863;28;20074;-89
2021/07/05 04:51:15;;;;;;;3.13;1.30;;;19.20;1.00;;;;;;4954240;28;20030;-89
2021/07/05 04:53:41;;;;;;;2.35;1.48;;;19.20;1.00;;;;;;4948707;28;20028;-89
2021/07/05 04:56:07;;;;;;;3.17;1.23;;;19.30;1.00;;;;;;4954981;28;20038;-89
2021/07/05 04:58:35;;;;;;;2.50;1.50;;;19.30;1.00;;;;;;4954448;28;20526;-89
2021/07/05 05:01:01;;;;;;;2.85;1.40;;;19.20;1.00;;;;;;4955000;28;20038;-89
2021/07/05 05:03:27;;;;;;;3.92;1.30;;;19.00;1.00;;;;;;4954160;28;20118;-89
2021/07/05 05:05:52;;;;;;;3.75;1.20;;;19.10;1.00;;;;;;4954246;28;20070;-89
2021/07/05 05:08:18;;;;;;;4.07;1.20;;;19.10;1.00;;;;;;4954366;28;20070;-88
2021/07/05 05:10:44;;;;;;;3.83;1.20;;;19.10;1.00;;;;;;4954279;28;20536;-89
2021/07/05 05:13:10;;;;;;;6.47;1.98;;;19.10;1.00;;;;;;4954945;28;20027;-89
2021/07/05 05:15:35;;;;;;;3.13;1.60;;;19.10;1.00;;;;;;4954783;28;20046;-89
2021/07/05 05:18:01;;;;;;;4.57;1.35;;;19.10;1.00;;;;;;4953958;28;20407;-89
2021/07/05 05:20:27;;;;;;;2.58;1.50;;;19.10;1.00;;;;;;4954423;28;20023;-89
2021/07/05 05:22:53;;;;;;;3.22;1.50;;;19.20;1.00;;;;;;4953772;28;20257;-89
2021/07/05 05:25:20;;;;;;;2.15;1.30;;;19.40;1.00;;;;;;4953939;28;20028;-89
2021/07/05 05:27:47;;;;;;;2.05;1.35;;;19.50;1.00;;;;;;4954529;28;20082;-89
2021/07/05 05:30:15;;;;;;;2.80;1.30;;;19.60;1.00;;;;;;4953971;28;20043;-89
2021/07/05 05:32:42;;;;;;;3.75;1.40;;;19.70;1.00;;;;;;4954500;28;20023;-89
2021/07/05 05:35:08;;;;;;;5.72;1.48;;;19.80;1.00;;;;;;4968051;28;20023;-89
2021/07/05 05:37:34;;;;;;;2.92;1.50;;;19.70;1.00;;;;;;4939352;29;20480;-90
2021/07/05 05:39:59;;;;;;;6.85;1.55;;;19.90;1.00;;;;;;4954863;28;20035;-89
2021/07/05 05:42:26;;;;;;;1.58;1.20;;;19.90;1.00;;;;;;4953946;28;20031;-89
2021/07/05 05:44:52;;;;;;;3.92;1.70;;;19.80;1.00;;;;;;4954849;28;20569;-88
2021/07/05 05:47:17;;;;;;;4.50;1.50;;;20.00;1.00;;;;;;4953407;28;20027;-89
2021/07/05 05:49:43;;;;;;;2.92;1.30;;;19.90;1.00;;;;;;4952535;29;20031;-86
2021/07/05 05:52:09;;;;;;;4.00;1.42;;;20.00;1.00;;;;;;4951716;29;20372;-86
2021/07/05 05:54:35;;;;;;;7.88;1.77;;;20.10;1.00;;;;;;4953899;28;20101;-87
2021/07/05 05:57:00;;;;;;;3.45;1.30;;;20.20;1.00;;;;;;4953550;28;20511;-88
2021/07/05 05:59:26;;;;;;;6.07;1.58;;;20.00;1.00;;;;;;4953405;28;20034;-87
2021/07/05 06:01:53;;;;;;;7.50;1.95;;;20.20;1.00;;;;;;4953863;28;20123;-89
2021/07/05 06:04:19;;;;;;;4.45;1.70;;;20.30;1.00;;;;;;4953142;28;20571;-89
2021/07/05 06:06:46;;;;;;;3.72;1.35;;;20.30;1.00;;;;;;4953893;28;20038;-88
2021/07/05 06:09:12;;;;;;;2.78;1.30;;;20.60;1.00;;;;;;4953126;28;20582;-88
2021/07/05 06:11:38;;;;;;;3.60;1.33;;;20.70;1.00;;;;;;4953753;28;20058;-88
2021/07/05 06:14:05;;;;;;;1.65;1.42;;;20.80;1.00;;;;;;4953499;28;20023;-88
2021/07/05 06:16:35;;;;;;;2.70;1.33;;;21.00;1.00;;;;;;4938618;29;20094;-89
2021/07/05 06:19:02;;;;;;;2.85;1.38;;;21.20;1.00;;;;;;4950323;29;20031;-88
2021/07/05 06:21:28;;;;;;;2.75;1.40;;;21.30;1.00;;;;;;4953723;29;20055;-88
2021/07/05 06:23:55;;;;;;;1.90;1.20;;;21.50;1.00;;;;;;4953306;28;20487;-88
2021/07/05 06:26:20;;;;;;;1.98;1.20;;;21.50;1.00;;;;;;4953619;28;20027;-88
2021/07/05 06:28:46;;;;;;;2.75;1.40;;;21.60;99.90;;;;;;4953260;28;20043;-88
2021/07/05 06:31:12;;;;;;;2.63;1.80;;;21.60;99.90;;;;;;4953616;28;20031;-88
2021/07/05 06:33:37;;;;;;;5.47;1.30;;;21.80;99.90;;;;;;4948427;28;20039;-89
2021/07/05 06:36:04;;;;;;;2.70;1.58;;;22.10;99.90;;;;;;4956928;28;20055;-89
2021/07/05 06:38:31;;;;;;;2.03;1.30;;;22.10;99.90;;;;;;4956684;28;20050;-88
2021/07/05 06:40:58;;;;;;;4.20;1.30;;;22.00;99.90;;;;;;4968810;28;20023;-88
2021/07/05 06:43:25;;;;;;;3.28;1.77;;;22.10;99.90;;;;;;4956468;28;20039;-88
2021/07/05 06:45:51;;;;;;;2.38;1.50;;;22.10;99.90;;;;;;4955910;28;20024;-88
2021/07/05 06:48:17;;;;;;;2.72;1.30;;;22.00;99.90;;;;;;4956223;28;20680;-87
2021/07/05 06:50:43;;;;;;;3.35;1.67;;;21.90;99.90;;;;;;4956142;28;20060;-87
2021/07/05 06:53:09;;;;;;;4.97;1.70;;;21.90;99.90;;;;;;4956332;28;20106;-87
2021/07/05 06:55:36;;;;;;;3.22;1.60;;;21.90;99.90;;;;;;4956651;28;20122;-87
2021/07/05 06:58:05;;;;;;;4.07;2.00;;;21.90;99.90;;;;;;4956724;28;20066;-89
2021/07/05 07:00:31;;;;;;;3.65;1.73;;;21.80;99.90;;;;;;4956223;29;20027;-89
2021/07/05 07:02:58;;;;;;;4.32;1.60;;;21.60;99.90;;;;;;4955947;28;20102;-89
2021/07/05 07:05:25;;;;;;;3.65;1.88;;;21.50;99.90;;;;;;4956822;28;20034;-89
2021/07/05 07:07:54;;;;;;;3.40;1.30;;;21.60;1.00;;;;;;4956231;28;20043;-91
2021/07/05 07:10:21;;;;;;;7.10;1.70;;;21.60;1.00;;;;;;4956308;28;20028;-89
2021/07/05 07:12:50;;;;;;;5.63;1.70;;;21.40;1.00;;;;;;4957043;28;20476;-88
2021/07/05 07:15:21;;;;;;;5.53;1.65;;;21.20;1.00;;;;;;4956204;28;20400;-89
2021/07/05 07:20:32;;;;;;;5.47;2.00;;;21.60;1.00;;;;;;4955656;29;20046;-86
2021/07/05 07:22:58;;;;;;;4.18;1.63;;;21.50;1.00;;;;;;4955472;28;20046;-87
2021/07/05 07:25:24;;;;;;;9.60;2.08;;;21.60;99.90;;;;;;4955567;28;20023;-86
2021/07/05 07:27:49;;;;;;;5.35;1.90;;;22.00;99.90;;;;;;4954654;29;20058;-82
2021/07/05 07:30:16;;;;;;;9.88;2.38;;;22.20;99.90;;;;;;4955218;29;20031;-83
2021/07/05 07:32:43;;;;;;;6.13;2.05;;;22.60;99.90;;;;;;4956113;28;20440;-88
2021/07/05 07:35:10;;;;;;;11.43;2.63;;;22.60;99.90;;;;;;4955249;28;20015;-87
2021/07/05 07:37:37;;;;;;;8.38;2.80;;;22.90;99.90;;;;;;4955550;28;20046;-89
2021/07/05 07:42:39;;;;;;;8.93;3.03;;;23.20;99.90;;;;;;4955572;29;20031;-88
2021/07/05 07:45:06;;;;;;;7.57;2.55;;;23.50;99.90;;;;;;4955589;28;20031;-88
2021/07/05 07:47:31;;;;;;;6.60;2.55;;;23.60;99.90;;;;;;4954849;28;20027;-88
2021/07/05 07:49:58;;;;;;;3.55;1.60;;;23.50;99.90;;;;;;4955404;28;20035;-88
2021/07/05 07:52:26;;;;;;;5.82;2.20;;;23.50;99.90;;;;;;4955751;28;20028;-88
2021/07/05 07:54:52;;;;;;;9.52;1.75;;;23.60;99.90;;;;;;4955569;28;20055;-88
2021/07/05 07:57:18;;;;;;;5.93;1.98;;;23.80;99.90;;;;;;4954877;28;20436;-89
2021/07/05 07:59:45;;;;;;;4.63;1.80;;;24.00;99.90;;;;;;4954482;28;20027;-88
2021/07/05 08:02:11;;;;;;;4.03;1.60;;;24.20;99.90;;;;;;4955175;28;20030;-89
2021/07/05 08:04:40;;;;;;;3.60;1.80;;;24.30;99.90;;;;;;4955235;28;20024;-89
2021/07/05 08:07:06;;;;;;;4.30;1.73;;;24.30;99.90;;;;;;4955100;28;20098;-89
2021/07/05 08:09:33;;;;;;;2.97;1.23;;;24.10;99.90;;;;;;4955610;28;20035;-89
2021/07/05 08:11:59;;;;;;;1.95;1.27;;;24.00;99.90;;;;;;4955089;28;20523;-89
2021/07/05 08:14:25;;;;;;;1.35;1.13;;;23.70;99.90;;;;;;4954811;28;20031;-89
2021/07/05 08:16:50;;;;;;;1.67;1.20;;;23.50;99.90;;;;;;4954884;28;20027;-90
2021/07/05 08:19:16;;;;;;;1.52;1.08;;;23.40;99.90;;;;;;4955093;28;20423;-90
2021/07/05 08:21:42;;;;;;;2.17;1.10;;;23.50;99.90;;;;;;4955268;28;20113;-89
2021/07/05 08:24:08;;;;;;;3.63;1.20;;;23.50;99.90;;;;;;4954922;28;20043;-89
2021/07/05 08:26:34;;;;;;;1.67;1.20;;;23.60;99.90;;;;;;4953625;28;20023;-89
2021/07/05 08:29:00;;;;;;;1.35;1.20;;;23.80;99.90;;;;;;4954301;28;20050;-89
2021/07/05 08:31:26;;;;;;;2.03;1.08;;;23.80;99.90;;;;;;4954687;28;20511;-89
2021/07/05 08:33:53;;;;;;;3.15;1.33;;;23.90;99.90;;;;;;4954967;28;20027;-89
2021/07/05 08:36:20;;;;;;;1.05;1.02;;;23.90;99.90;;;;;;4954645;28;20403;-89
2021/07/05 08:38:47;;;;;;;1.77;1.30;;;23.80;99.90;;;;;;4953817;28;20403;-88
2021/07/05 08:41:13;;;;;;;2.38;1.17;;;24.30;99.90;;;;;;4954314;28;20031;-88
2021/07/05 08:43:44;;;;;;;2.03;1.30;;;24.90;99.90;;;;;;4954177;28;20114;-88
2021/07/05 08:46:11;;;;;;;2.67;1.23;;;25.40;99.90;;;;;;4954523;28;20032;-89
2021/07/05 08:48:39;;;;;;;3.28;1.08;;;25.50;99.90;;;;;;4955757;28;20392;-88
2021/07/05 08:51:09;;;;;;;2.88;1.35;;;25.90;99.90;;;;;;4954306;28;20035;-89
2021/07/05 08:53:34;;;;;;;6.53;1.60;;;26.20;99.90;;;;;;4954368;28;20115;-88
2021/07/05 08:56:00;;;;;;;3.30;1.13;;;26.40;99.90;;;;;;4954253;28;20126;-89
2021/07/05 08:58:26;;;;;;;2.35;1.48;;;26.30;99.90;;;;;;4953630;28;20034;-88
2021/07/05 09:00:52;;;;;;;1.08;0.98;;;26.10;99.90;;;;;;4954829;28;20392;-88
2021/07/05 09:03:27;;;;;;;0.88;0.88;;;26.10;99.90;;;;;;4953931;28;20027;-88
2021/07/05 09:06:12;;;;;;;1.95;0.90;;;26.20;99.90;;;;;;4954079;28;20042;-88
2021/07/05 09:08:40;;;;;;;1.10;1.00;;;25.90;99.90;;;;;;4953739;28;20035;-88
2021/07/05 09:11:08;;;;;;;1.23;1.13;;;25.50;99.90;;;;;;4954058;28;20011;-89
2021/07/05 09:13:45;;;;;;;1.70;1.00;;;26.40;99.90;;;;;;4953918;28;20118;-89
2021/07/05 09:16:10;;;;;;;0.90;0.90;;;27.00;99.90;;;;;;4954240;28;20539;-88
2021/07/05 09:18:42;;;;;;;2.55;1.00;;;27.30;99.90;;;;;;4952738;29;20130;-88
2021/07/05 09:21:16;;;;;;;1.10;0.80;;;27.60;99.90;;;;;;4954080;28;20031;-89
2021/07/05 09:23:51;;;;;;;2.25;1.05;;;27.30;99.90;;;;;;4953560;28;20072;-88
2021/07/05 09:26:22;;;;;;;3.88;1.10;;;27.00;99.90;;;;;;4953988;28;20034;-88
2021/07/05 09:28:51;;;;;;;1.20;0.95;;;27.10;99.90;;;;;;4953181;28;20043;-88
2021/07/05 09:31:38;;;;;;;1.27;1.02;;;27.30;99.90;;;;;;4953780;28;20166;-88
2021/07/05 09:34:13;;;;;;;1.70;1.05;;;28.00;99.90;;;;;;4950812;28;20510;-87
2021/07/05 09:36:38;;;;;;;2.80;0.90;;;28.00;99.90;;;;;;4953318;29;20019;-88
2021/07/05 09:39:21;;;;;;;1.30;0.77;;;27.80;99.90;;;;;;4953824;28;20039;-88
2021/07/05 09:41:49;;;;;;;2.10;1.08;;;27.70;99.90;;;;;;4953122;28;20507;-88
2021/07/05 09:44:18;;;;;;;0.95;0.88;;;27.30;99.90;;;;;;4953454;28;20027;-88
2021/07/05 09:46:56;;;;;;;1.13;1.02;;;27.60;99.90;;;;;;4957273;29;20523;-86
2021/07/05 09:49:21;;;;;;;1.65;0.90;;;27.40;99.90;;;;;;4972977;23;20272;-95
2021/07/05 09:52:06;;;;;;;0.82;0.73;;;27.40;99.90;;;;;;4955461;28;20031;-92
2021/07/05 09:54:36;;;;;;;4.30;1.30;;;27.30;99.90;;;;;;4969694;28;20038;-92
2021/07/05 09:57:04;;;;;;;1.05;0.95;;;27.00;99.90;;;;;;4955111;28;20035;-93
2021/07/05 09:59:31;;;;;;;0.90;0.90;;;27.10;99.90;;;;;;4954354;28;20480;-93
2021/07/05 10:01:59;;;;;;;2.15;1.02;;;27.20;99.90;;;;;;4953937;28;20063;-92
2021/07/05 10:04:27;;;;;;;4.75;1.30;;;27.20;99.90;;;;;;4953638;28;20178;-87
2021/07/05 10:06:59;;;;;;;2.40;1.38;;;27.70;99.90;;;;;;4953604;28;20054;-88
2021/07/05 10:09:40;;;;;;;3.17;0.95;;;27.80;99.90;;;;;;4955282;28;20047;-89
2021/07/05 10:12:29;;;;;;;1.10;1.00;;;28.30;99.90;;;;;;4958699;28;20031;-88
2021/07/05 10:15:02;;;;;;;0.82;0.80;;;28.10;99.90;;;;;;4964713;28;20503;-89
2021/07/05 10:17:31;;;;;;;2.55;0.90;;;28.10;99.90;;;;;;4957736;28;20027;-87
2021/07/05 10:19:57;;;;;;;1.00;1.00;;;28.60;99.90;;;;;;4957682;28;20031;-86
2021/07/05 10:22:23;;;;;;;1.48;1.00;;;28.60;99.90;;;;;;4958133;28;20035;-91
2021/07/05 10:24:50;;;;;;;1.52;0.80;;;28.80;99.90;;;;;;4956842;28;20031;-88
2021/07/05 10:27:17;;;;;;;1.75;1.02;;;29.40;99.90;;;;;;4956825;28;20038;-86
2021/07/05 10:29:46;;;;;;;1.27;1.10;;;29.50;99.90;;;;;;4956577;28;20039;-89
2021/07/05 10:32:12;;;;;;;2.58;0.80;;;29.50;99.90;;;;;;4958471;28;20027;-90
2021/07/05 10:34:39;;;;;;;2.20;1.02;;;29.80;99.90;;;;;;4958641;28;20047;-90
2021/07/05 10:37:13;;;;;;;1.02;1.00;;;29.70;99.90;;;;;;4956299;28;20145;-91
2021/07/05 10:39:40;;;;;;;0.90;0.90;;;29.90;99.90;;;;;;4956827;28;20507;-90
2021/07/05 10:42:29;;;;;;;1.95;1.00;;;29.70;99.90;;;;;;4957733;28;20483;-89
2021/07/05 10:44:55;;;;;;;1.08;0.90;;;29.00;99.90;;;;;;4957356;28;20035;-90
2021/07/05 10:47:44;;;;;;;1.40;1.30;;;28.90;99.90;;;;;;4958902;28;20086;-92
2021/07/05 10:50:42;;;;;;;1.52;0.85;;;29.20;99.90;;;;;;4958476;28;20415;-90
2021/07/05 10:53:13;;;;;;;2.67;0.80;;;28.90;99.90;;;;;;4959768;28;20031;-91
2021/07/05 10:55:48;;;;;;;0.90;0.70;;;28.50;99.90;;;;;;4957660;28;20042;-88
2021/07/05 10:58:25;;;;;;;2.05;0.90;;;28.30;99.90;;;;;;4956932;28;20031;-90
2021/07/05 11:00:53;;;;;;;1.23;0.90;;;28.20;99.90;;;;;;4955169;29;20062;-90
2021/07/05 11:03:37;;;;;;;1.00;0.88;;;27.60;99.90;;;;;;4957168;28;20045;-91
2021/07/05 11:06:11;;;;;;;1.00;1.00;;;27.90;99.90;;;;;;4957154;28;20510;-90
2021/07/05 11:08:51;;;;;;;0.80;0.80;;;27.80;99.90;;;;;;4956530;28;20577;-91
2021/07/05 11:11:43;;;;;;;2.65;0.88;;;27.50;99.90;;;;;;4958928;28;20074;-88
2021/07/05 11:14:15;;;;;;;0.82;0.82;;;27.60;99.90;;;;;;4955791;28;20039;-85
2021/07/05 11:17:01;;;;;;;1.70;1.00;;;28.00;99.90;;;;;;4956387;28;20411;-85
2021/07/05 11:19:36;;;;;;;2.72;1.10;;;28.00;99.90;;;;;;4955813;28;20572;-85
2021/07/05 11:22:16;;;;;;;1.27;1.00;;;28.20;99.90;;;;;;4951518;29;20105;-85
2021/07/05 11:24:50;;;;;;;2.05;1.02;;;27.90;99.90;;;;;;4957369;28;20503;-85
2021/07/05 11:27:29;;;;;;;1.80;1.17;;;28.10;99.90;;;;;;4956403;28;20031;-86
2021/07/05 11:30:11;;;;;;;1.38;1.27;;;28.20;99.90;;;;;;4956164;28;20043;-85
2021/07/05 11:32:48;;;;;;;0.85;0.85;;;27.80;99.90;;;;;;4956264;28;20031;-86
2021/07/05 11:35:38;;;;;;;0.90;0.90;;;28.20;99.90;;;;;;4955077;28;20027;-86
2021/07/05 11:38:22;;;;;;;1.20;1.10;;;28.80;99.90;;;;;;4944514;28;20114;-86
2021/07/05 11:40:58;;;;;;;1.20;1.10;;;28.90;99.90;;;;;;4942568;28;20046;-85
2021/07/05 11:43:47;;;;;;;1.05;1.00;;;29.10;99.90;;;;;;4955820;28;20133;-85
2021/07/05 11:46:37;;;;;;;1.17;1.00;;;29.40;99.90;;;;;;4952735;28;20046;-86
2021/07/05 11:49:08;;;;;;;1.25;0.90;;;29.30;99.90;;;;;;4954230;28;20495;-86
2021/07/05 11:51:39;;;;;;;1.10;1.10;;;29.40;99.90;;;;;;4970205;28;20078;-86
2021/07/05 11:54:13;;;;;;;1.13;1.00;;;29.40;99.90;;;;;;4951637;28;20039;-86
2021/07/05 11:56:47;;;;;;;2.13;1.30;;;30.00;99.90;;;;;;4952912;28;20078;-86
2021/07/05 11:59:27;;;;;;;3.55;1.13;;;30.30;99.90;;;;;;4947541;28;20032;-85
2021/07/05 12:02:01;;;;;;;1.23;0.98;;;30.10;99.90;;;;;;4955439;28;20119;-86
2021/07/05 12:04:46;;;;;;;3.25;0.98;;;30.50;99.90;;;;;;4955364;28;20411;-85
2021/07/05 12:07:14;;;;;;;2.40;1.20;;;30.00;99.90;;;;;;4951767;28;20535;-86
2021/07/05 12:09:44;;;;;;;4.47;0.90;;;29.80;99.90;;;;;;4953538;28;20047;-86
2021/07/05 12:12:13;;;;;;;1.50;1.10;;;30.20;99.90;;;;;;4952672;28;20027;-86
2021/07/05 12:14:39;;;;;;;2.83;1.23;;;30.20;99.90;;;;;;4954122;28;20032;-86
2021/07/05 12:17:06;;;;;;;2.50;1.10;;;29.50;99.90;;;;;;4956937;28;20027;-85
2021/07/05 12:19:33;;;;;;;2.78;1.20;;;30.10;99.90;;;;;;4954086;28;20411;-86
2021/07/05 12:22:02;;;;;;;4.90;1.23;;;30.50;99.90;;;;;;4950083;28;20027;-86
2021/07/05 12:24:31;;;;;;;1.98;1.08;;;30.40;99.90;;;;;;4955365;28;20027;-85
2021/07/05 12:27:06;;;;;;;4.20;1.40;;;30.20;99.90;;;;;;4954990;28;20502;-86
2021/07/05 12:29:40;;;;;;;1.40;1.30;;;30.20;99.90;;;;;;4954664;28;20556;-86
2021/07/05 12:32:17;;;;;;;2.35;1.25;;;30.40;99.90;;;;;;4954060;28;20025;-86
2021/07/05 12:34:51;;;;;;;1.27;1.17;;;30.10;99.90;;;;;;4940975;28;20057;-86
2021/07/05 12:37:31;;;;;;;1.77;1.25;;;29.90;99.90;;;;;;4954866;28;20055;-85
2021/07/05 12:40:00;;;;;;;1.02;1.02;;;30.50;99.90;;;;;;4954254;29;20055;-85
2021/07/05 12:42:34;;;;;;;1.30;1.20;;;30.90;99.90;;;;;;4969661;28;20031;-86
2021/07/05 12:45:04;;;;;;;3.42;1.45;;;34.10;99.90;;;;;;4954721;28;20043;-86
2021/07/05 12:47:30;;;;;;;1.83;1.40;;;34.50;99.90;;;;;;4969488;28;20054;-86
2021/07/05 12:49:58;;;;;;;1.38;1.23;;;34.60;99.90;;;;;;4954599;28;20051;-86
2021/07/05 12:52:24;;;;;;;1.00;1.00;;;34.70;99.90;;;;;;4954824;28;22476;-86
2021/07/05 12:55:10;;;;;;;2.65;1.40;;;35.70;99.90;;;;;;4955006;28;20066;-86
2021/07/05 12:57:48;;;;;;;1.10;1.10;;;35.60;99.90;;;;;;4955452;28;20117;-86
2021/07/05 13:00:14;;;;;;;1.50;1.20;;;36.80;99.90;;;;;;4954318;28;20035;-86
2021/07/05 13:02:39;;;;;;;1.20;1.10;;;37.90;99.90;;;;;;4952916;28;20042;-86
2021/07/05 13:05:17;;;;;;;4.07;1.10;;;37.30;99.90;;;;;;4954479;28;20035;-86